sensor_id;sensor_type;location;lat;lon;timestamp;pressure;altitude;pressure_sealevel;temperature;humidity
47742;BME280;33504;52.066;6.096;2023-02-15T00:02:02;102886.31;;;5.24;42.80
47742;BME280;33504;52.066;6.096;2023-02-15T00:04:29;102880.25;;;5.21;42.76
47742;BME280;33504;52.066;6.096;2023-02-15T00:06:56;102873.47;;;5.18;42.67
47742;BME280;33504;52.066;6.096;2023-02-15T00:09:23;102872.73;;;5.12;42.63
47742;BME280;33504;52.066;6.096;2023-02-15T00:11:51;102869.58;;;5.09;42.69
47742;BME280;33504;52.066;6.096;2023-02-15T00:14:19;102866.35;;;5.05;42.82
47742;BME280;33504;52.066;6.096;2023-02-15T00:16:48;102863.24;;;4.99;42.68
47742;BME280;33504;52.066;6.096;2023-02-15T00:19:17;102858.92;;;5.16;42.71
47742;BME280;33504;52.066;6.096;2023-02-15T00:21:46;102858.09;;;4.91;42.73
47742;BME280;33504;52.066;6.096;2023-02-15T00:24:15;102856.03;;;5.11;42.83
47742;BME280;33504;52.066;6.096;2023-02-15T00:26:43;102858.14;;;4.84;42.91
47742;BME280;33504;52.066;6.096;2023-02-15T00:29:12;102859.41;;;5.01;42.87
47742;BME280;33504;52.066;6.096;2023-02-15T00:31:40;102855.80;;;4.74;42.93
47742;BME280;33504;52.066;6.096;2023-02-15T00:34:16;102853.97;;;4.71;42.91
47742;BME280;33504;52.066;6.096;2023-02-15T00:36:44;102856.36;;;4.66;42.84
47742;BME280;33504;52.066;6.096;2023-02-15T00:39:11;102861.22;;;4.82;42.78
47742;BME280;33504;52.066;6.096;2023-02-15T00:41:39;102861.99;;;4.79;42.84
47742;BME280;33504;52.066;6.096;2023-02-15T00:44:07;102861.39;;;4.78;42.87
47742;BME280;33504;52.066;6.096;2023-02-15T00:46:35;102861.19;;;4.55;42.98
47742;BME280;33504;52.066;6.096;2023-02-15T00:49:03;102860.55;;;4.53;42.98
47742;BME280;33504;52.066;6.096;2023-02-15T00:51:31;102858.16;;;4.51;42.94
47742;BME280;33504;52.066;6.096;2023-02-15T00:53:58;102859.58;;;4.48;42.74
47742;BME280;33504;52.066;6.096;2023-02-15T00:56:26;102856.04;;;4.63;42.66
47742;BME280;33504;52.066;6.096;2023-02-15T00:58:53;102854.64;;;4.57;42.67
47742;BME280;33504;52.066;6.096;2023-02-15T01:01:20;102853.89;;;4.79;42.62
47742;BME280;33504;52.066;6.096;2023-02-15T01:03:48;102850.64;;;4.75;42.70
47742;BME280;33504;52.066;6.096;2023-02-15T01:06:16;102851.99;;;4.72;42.71
47742;BME280;33504;52.066;6.096;2023-02-15T01:08:44;102852.15;;;4.69;42.66
47742;BME280;33504;52.066;6.096;2023-02-15T01:11:13;102853.87;;;4.15;42.78
47742;BME280;33504;52.066;6.096;2023-02-15T01:13:41;102848.89;;;4.62;42.81
47742;BME280;33504;52.066;6.096;2023-02-15T01:16:08;102840.82;;;4.35;42.86
47742;BME280;33504;52.066;6.096;2023-02-15T01:18:35;102837.81;;;4.34;42.90
47742;BME280;33504;52.066;6.096;2023-02-15T01:21:10;102835.04;;;4.59;42.99
47742;BME280;33504;52.066;6.096;2023-02-15T01:23:37;102829.77;;;4.54;43.01
47742;BME280;33504;52.066;6.096;2023-02-15T01:26:04;102828.40;;;4.50;43.02
47742;BME280;33504;52.066;6.096;2023-02-15T01:28:31;102823.54;;;4.47;43.14
47742;BME280;33504;52.066;6.096;2023-02-15T01:30:58;102820.72;;;4.49;43.22
47742;BME280;33504;52.066;6.096;2023-02-15T01:33:26;102819.09;;;4.20;43.28
47742;BME280;33504;52.066;6.096;2023-02-15T01:35:56;102819.15;;;4.16;43.26
47742;BME280;33504;52.066;6.096;2023-02-15T01:38:24;102815.49;;;4.11;43.33
47742;BME280;33504;52.066;6.096;2023-02-15T01:40:51;102813.86;;;4.35;43.35
47742;BME280;33504;52.066;6.096;2023-02-15T01:43:19;102809.13;;;4.32;43.36
47742;BME280;33504;52.066;6.096;2023-02-15T01:45:47;102805.21;;;4.29;43.37
47742;BME280;33504;52.066;6.096;2023-02-15T01:48:19;102803.04;;;4.27;43.44
47742;BME280;33504;52.066;6.096;2023-02-15T01:50:50;102802.33;;;4.27;43.37
47742;BME280;33504;52.066;6.096;2023-02-15T01:53:23;102800.97;;;4.26;43.26
47742;BME280;33504;52.066;6.096;2023-02-15T01:55:55;102802.60;;;4.45;43.23
47742;BME280;33504;52.066;6.096;2023-02-15T01:58:26;102801.29;;;4.19;43.27
47742;BME280;33504;52.066;6.096;2023-02-15T02:00:56;102801.03;;;4.17;43.28
47742;BME280;33504;52.066;6.096;2023-02-15T02:03:34;102800.00;;;4.16;43.32
47742;BME280;33504;52.066;6.096;2023-02-15T02:06:03;102797.86;;;4.16;43.25
47742;BME280;33504;52.066;6.096;2023-02-15T02:08:31;102794.75;;;4.37;43.34
47742;BME280;33504;52.066;6.096;2023-02-15T02:10:58;102796.23;;;4.15;43.35
47742;BME280;33504;52.066;6.096;2023-02-15T02:13:25;102793.91;;;4.11;43.21
47742;BME280;33504;52.066;6.096;2023-02-15T02:15:57;102794.53;;;4.05;42.77
47742;BME280;33504;52.066;6.096;2023-02-15T02:18:38;102790.65;;;4.00;42.62
47742;BME280;33504;52.066;6.096;2023-02-15T02:22:14;102785.72;;;4.88;42.39
47742;BME280;33504;52.066;6.096;2023-02-15T02:25:04;102778.07;;;3.83;42.63
47742;BME280;33504;52.066;6.096;2023-02-15T02:27:38;102771.73;;;4.07;42.88
47742;BME280;33504;52.066;6.096;2023-02-15T02:30:55;102773.43;;;4.08;43.00
47742;BME280;33504;52.066;6.096;2023-02-15T02:33:42;102775.70;;;4.02;43.11
47742;BME280;33504;52.066;6.096;2023-02-15T02:36:22;102777.85;;;3.78;43.13
47742;BME280;33504;52.066;6.096;2023-02-15T02:39:05;102770.50;;;3.78;43.29
47742;BME280;33504;52.066;6.096;2023-02-15T02:41:38;102766.37;;;3.75;43.35
47742;BME280;33504;52.066;6.096;2023-02-15T02:44:14;102761.90;;;3.73;43.33
47742;BME280;33504;52.066;6.096;2023-02-15T02:46:51;102754.60;;;3.68;43.32
47742;BME280;33504;52.066;6.096;2023-02-15T02:49:30;102752.24;;;3.90;43.70
47742;BME280;33504;52.066;6.096;2023-02-15T02:51:59;102758.28;;;3.68;43.83
47742;BME280;33504;52.066;6.096;2023-02-15T02:54:26;102757.35;;;3.90;43.69
47742;BME280;33504;52.066;6.096;2023-02-15T02:56:56;102755.67;;;3.66;43.57
47742;BME280;33504;52.066;6.096;2023-02-15T02:59:29;102752.49;;;3.66;43.51
47742;BME280;33504;52.066;6.096;2023-02-15T03:02:02;102750.47;;;3.65;43.37
47742;BME280;33504;52.066;6.096;2023-02-15T03:04:36;102749.59;;;3.65;43.39
47742;BME280;33504;52.066;6.096;2023-02-15T03:07:07;102746.77;;;3.62;43.37
47742;BME280;33504;52.066;6.096;2023-02-15T03:09:37;102741.50;;;3.63;43.41
47742;BME280;33504;52.066;6.096;2023-02-15T03:12:05;102741.33;;;4.12;43.34
47742;BME280;33504;52.066;6.096;2023-02-15T03:14:33;102738.70;;;3.85;43.40
47742;BME280;33504;52.066;6.096;2023-02-15T03:17:01;102734.76;;;3.57;43.45
47742;BME280;33504;52.066;6.096;2023-02-15T03:19:31;102732.07;;;3.80;43.49
47742;BME280;33504;52.066;6.096;2023-02-15T03:22:04;102728.74;;;3.78;43.47
47742;BME280;33504;52.066;6.096;2023-02-15T03:24:36;102729.22;;;4.02;43.45
47742;BME280;33504;52.066;6.096;2023-02-15T03:27:08;102726.81;;;3.48;43.42
47742;BME280;33504;52.066;6.096;2023-02-15T03:29:37;102726.53;;;3.66;43.49
47742;BME280;33504;52.066;6.096;2023-02-15T03:32:08;102723.40;;;3.62;43.50
47742;BME280;33504;52.066;6.096;2023-02-15T03:34:36;102722.22;;;3.37;43.62
47742;BME280;33504;52.066;6.096;2023-02-15T03:37:08;102723.34;;;3.84;43.42
47742;BME280;33504;52.066;6.096;2023-02-15T03:39:41;102723.22;;;3.81;43.11
47742;BME280;33504;52.066;6.096;2023-02-15T03:42:13;102719.69;;;3.28;42.67
47742;BME280;33504;52.066;6.096;2023-02-15T03:44:49;102716.69;;;3.45;42.59
47742;BME280;33504;52.066;6.096;2023-02-15T03:47:20;102710.91;;;3.20;42.65
47742;BME280;33504;52.066;6.096;2023-02-15T03:49:53;102707.33;;;3.38;43.09
47742;BME280;33504;52.066;6.096;2023-02-15T03:52:25;102706.70;;;3.63;43.39
47742;BME280;33504;52.066;6.096;2023-02-15T03:54:53;102710.83;;;3.61;43.27
47742;BME280;33504;52.066;6.096;2023-02-15T03:57:22;102709.88;;;3.58;43.14
47742;BME280;33504;52.066;6.096;2023-02-15T03:59:49;102708.42;;;3.29;43.34
47742;BME280;33504;52.066;6.096;2023-02-15T04:02:20;102706.68;;;3.06;43.31
47742;BME280;33504;52.066;6.096;2023-02-15T04:04:49;102700.40;;;3.21;43.30
47742;BME280;33504;52.066;6.096;2023-02-15T04:07:16;102702.93;;;3.48;43.59
47742;BME280;33504;52.066;6.096;2023-02-15T04:09:43;102700.06;;;3.44;43.58
47742;BME280;33504;52.066;6.096;2023-02-15T04:12:10;102698.43;;;2.94;43.65
47742;BME280;33504;52.066;6.096;2023-02-15T04:14:38;102698.28;;;3.15;43.62
47742;BME280;33504;52.066;6.096;2023-02-15T04:17:06;102696.17;;;3.12;43.67
47742;BME280;33504;52.066;6.096;2023-02-15T04:19:33;102694.28;;;3.37;43.58
47742;BME280;33504;52.066;6.096;2023-02-15T04:22:00;102692.49;;;3.09;43.62
47742;BME280;33504;52.066;6.096;2023-02-15T04:24:27;102689.46;;;3.31;43.61
47742;BME280;33504;52.066;6.096;2023-02-15T04:26:55;102689.69;;;3.31;43.67
47742;BME280;33504;52.066;6.096;2023-02-15T04:29:24;102684.77;;;3.03;43.72
47742;BME280;33504;52.066;6.096;2023-02-15T04:31:53;102685.32;;;2.97;43.73
47742;BME280;33504;52.066;6.096;2023-02-15T04:34:20;102689.29;;;3.22;43.80
47742;BME280;33504;52.066;6.096;2023-02-15T04:36:47;102686.89;;;2.94;43.82
47742;BME280;33504;52.066;6.096;2023-02-15T04:39:16;102685.79;;;3.21;43.87
47742;BME280;33504;52.066;6.096;2023-02-15T04:41:44;102687.28;;;3.21;43.80
47742;BME280;33504;52.066;6.096;2023-02-15T04:44:11;102686.46;;;2.94;43.69
47742;BME280;33504;52.066;6.096;2023-02-15T04:46:38;102683.96;;;3.18;43.88
47742;BME280;33504;52.066;6.096;2023-02-15T04:49:05;102682.38;;;3.17;43.81
47742;BME280;33504;52.066;6.096;2023-02-15T04:51:32;102684.32;;;3.16;43.80
47742;BME280;33504;52.066;6.096;2023-02-15T04:53:59;102679.89;;;3.15;43.87
47742;BME280;33504;52.066;6.096;2023-02-15T04:56:26;102680.77;;;3.14;43.99
47742;BME280;33504;52.066;6.096;2023-02-15T04:58:53;102676.37;;;3.11;43.97
47742;BME280;33504;52.066;6.096;2023-02-15T05:01:20;102674.97;;;2.82;43.98
47742;BME280;33504;52.066;6.096;2023-02-15T05:03:48;102671.26;;;3.02;43.78
47742;BME280;33504;52.066;6.096;2023-02-15T05:06:15;102670.95;;;3.00;43.68
47742;BME280;33504;52.066;6.096;2023-02-15T05:08:42;102669.18;;;2.97;43.53
47742;BME280;33504;52.066;6.096;2023-02-15T05:11:09;102667.35;;;2.94;43.50
47742;BME280;33504;52.066;6.096;2023-02-15T05:13:37;102665.47;;;2.95;43.58
47742;BME280;33504;52.066;6.096;2023-02-15T05:16:04;102665.83;;;2.98;43.43
47742;BME280;33504;52.066;6.096;2023-02-15T05:18:31;102665.87;;;2.94;44.23
47742;BME280;33504;52.066;6.096;2023-02-15T05:20:59;102667.98;;;2.91;44.38
47742;BME280;33504;52.066;6.096;2023-02-15T05:23:26;102668.27;;;2.95;44.45
47742;BME280;33504;52.066;6.096;2023-02-15T05:25:54;102668.12;;;2.94;45.12
47742;BME280;33504;52.066;6.096;2023-02-15T05:28:22;102664.36;;;2.92;45.57
47742;BME280;33504;52.066;6.096;2023-02-15T05:30:57;102664.10;;;2.74;46.00
47742;BME280;33504;52.066;6.096;2023-02-15T05:33:27;102657.26;;;3.05;45.91
47742;BME280;33504;52.066;6.096;2023-02-15T05:35:54;102653.85;;;2.90;46.68
47742;BME280;33504;52.066;6.096;2023-02-15T05:38:21;102651.90;;;3.13;46.57
47742;BME280;33504;52.066;6.096;2023-02-15T05:40:47;102651.15;;;2.99;46.32
47742;BME280;33504;52.066;6.096;2023-02-15T05:43:14;102648.99;;;3.32;46.47
47742;BME280;33504;52.066;6.096;2023-02-15T05:45:44;102649.38;;;3.14;46.59
47742;BME280;33504;52.066;6.096;2023-02-15T05:48:12;102651.36;;;3.45;46.56
47742;BME280;33504;52.066;6.096;2023-02-15T05:50:40;102650.89;;;3.52;46.25
47742;BME280;33504;52.066;6.096;2023-02-15T05:53:07;102651.16;;;3.48;46.47
47742;BME280;33504;52.066;6.096;2023-02-15T05:55:36;102651.86;;;3.63;46.47
47742;BME280;33504;52.066;6.096;2023-02-15T05:58:03;102651.13;;;3.38;46.65
47742;BME280;33504;52.066;6.096;2023-02-15T06:00:30;102655.08;;;3.37;46.24
47742;BME280;33504;52.066;6.096;2023-02-15T06:02:57;102652.66;;;3.69;46.20
47742;BME280;33504;52.066;6.096;2023-02-15T06:05:24;102650.01;;;3.03;47.55
47742;BME280;33504;52.066;6.096;2023-02-15T06:07:52;102653.73;;;3.36;47.22
47742;BME280;33504;52.066;6.096;2023-02-15T06:10:19;102652.83;;;3.73;46.77
47742;BME280;33504;52.066;6.096;2023-02-15T06:12:47;102652.57;;;3.71;47.01
47742;BME280;33504;52.066;6.096;2023-02-15T06:15:15;102656.90;;;3.27;47.08
47742;BME280;33504;52.066;6.096;2023-02-15T06:17:42;102657.67;;;3.76;46.94
47742;BME280;33504;52.066;6.096;2023-02-15T06:20:10;102655.69;;;3.68;47.94
47742;BME280;33504;52.066;6.096;2023-02-15T06:22:37;102655.55;;;3.39;47.39
47742;BME280;33504;52.066;6.096;2023-02-15T06:25:05;102656.45;;;3.37;47.32
47742;BME280;33504;52.066;6.096;2023-02-15T06:27:32;102660.21;;;3.79;48.15
47742;BME280;33504;52.066;6.096;2023-02-15T06:29:59;102659.21;;;3.40;47.86
47742;BME280;33504;52.066;6.096;2023-02-15T06:32:26;102660.17;;;3.73;47.60
47742;BME280;33504;52.066;6.096;2023-02-15T06:34:53;102663.88;;;3.35;48.01
47742;BME280;33504;52.066;6.096;2023-02-15T06:37:21;102661.44;;;3.46;47.68
47742;BME280;33504;52.066;6.096;2023-02-15T06:39:48;102662.18;;;3.48;47.85
47742;BME280;33504;52.066;6.096;2023-02-15T06:42:15;102662.67;;;3.97;47.88
47742;BME280;33504;52.066;6.096;2023-02-15T06:44:42;102660.59;;;3.56;47.80
47742;BME280;33504;52.066;6.096;2023-02-15T06:47:09;102660.15;;;3.48;47.89
47742;BME280;33504;52.066;6.096;2023-02-15T06:49:37;102659.28;;;3.74;47.54
47742;BME280;33504;52.066;6.096;2023-02-15T06:52:04;102657.03;;;3.78;47.26
47742;BME280;33504;52.066;6.096;2023-02-15T06:54:31;102656.60;;;3.51;47.52
47742;BME280;33504;52.066;6.096;2023-02-15T06:56:58;102652.91;;;3.52;47.52
47742;BME280;33504;52.066;6.096;2023-02-15T06:59:26;102651.48;;;3.09;48.57
47742;BME280;33504;52.066;6.096;2023-02-15T07:01:53;102652.96;;;3.93;47.95
47742;BME280;33504;52.066;6.096;2023-02-15T07:04:20;102648.97;;;3.87;48.11
47742;BME280;33504;52.066;6.096;2023-02-15T07:06:48;102647.75;;;3.76;48.45
47742;BME280;33504;52.066;6.096;2023-02-15T07:09:15;102643.44;;;3.60;49.13
47742;BME280;33504;52.066;6.096;2023-02-15T07:11:42;102640.02;;;3.30;48.79
47742;BME280;33504;52.066;6.096;2023-02-15T07:14:09;102644.50;;;3.23;49.11
47742;BME280;33504;52.066;6.096;2023-02-15T07:16:36;102639.96;;;3.44;48.59
47742;BME280;33504;52.066;6.096;2023-02-15T07:19:03;102640.79;;;3.17;49.36
47742;BME280;33504;52.066;6.096;2023-02-15T07:21:30;102637.87;;;3.71;48.77
47742;BME280;33504;52.066;6.096;2023-02-15T07:23:58;102637.54;;;3.57;48.69
47742;BME280;33504;52.066;6.096;2023-02-15T07:26:25;102634.89;;;3.98;48.85
47742;BME280;33504;52.066;6.096;2023-02-15T07:28:53;102633.23;;;4.32;47.89
47742;BME280;33504;52.066;6.096;2023-02-15T07:31:20;102627.35;;;3.95;47.65
47742;BME280;33504;52.066;6.096;2023-02-15T07:33:46;102626.31;;;3.94;48.22
47742;BME280;33504;52.066;6.096;2023-02-15T07:36:14;102622.25;;;3.64;48.76
47742;BME280;33504;52.066;6.096;2023-02-15T07:38:41;102617.34;;;3.37;49.34
47742;BME280;33504;52.066;6.096;2023-02-15T07:41:10;102615.93;;;3.35;49.52
47742;BME280;33504;52.066;6.096;2023-02-15T07:43:40;102617.57;;;3.24;49.86
47742;BME280;33504;52.066;6.096;2023-02-15T07:46:10;102613.34;;;3.81;49.79
47742;BME280;33504;52.066;6.096;2023-02-15T07:48:39;102613.13;;;3.44;49.81
47742;BME280;33504;52.066;6.096;2023-02-15T07:51:09;102605.15;;;3.00;50.67
47742;BME280;33504;52.066;6.096;2023-02-15T07:53:36;102603.46;;;2.95;50.74
47742;BME280;33504;52.066;6.096;2023-02-15T07:56:07;102603.99;;;3.30;50.24
47742;BME280;33504;52.066;6.096;2023-02-15T07:58:36;102610.76;;;3.02;51.22
47742;BME280;33504;52.066;6.096;2023-02-15T08:01:03;102608.81;;;3.71;50.13
47742;BME280;33504;52.066;6.096;2023-02-15T08:03:30;102611.54;;;4.25;49.67
47742;BME280;33504;52.066;6.096;2023-02-15T08:05:59;102608.31;;;4.74;48.26
47742;BME280;33504;52.066;6.096;2023-02-15T08:08:27;102609.61;;;5.14;47.60
47742;BME280;33504;52.066;6.096;2023-02-15T08:10:57;102607.16;;;5.63;45.92
47742;BME280;33504;52.066;6.096;2023-02-15T08:13:24;102603.80;;;5.46;46.09
47742;BME280;33504;52.066;6.096;2023-02-15T08:15:51;102601.84;;;5.57;45.84
47742;BME280;33504;52.066;6.096;2023-02-15T08:18:18;102593.89;;;5.98;45.12
47742;BME280;33504;52.066;6.096;2023-02-15T08:20:49;102593.26;;;6.10;45.02
47742;BME280;33504;52.066;6.096;2023-02-15T08:23:15;102594.05;;;5.96;44.61
47742;BME280;33504;52.066;6.096;2023-02-15T08:25:43;102593.25;;;6.29;43.94
47742;BME280;33504;52.066;6.096;2023-02-15T08:28:09;102589.16;;;6.09;44.17
47742;BME280;33504;52.066;6.096;2023-02-15T08:30:37;102587.62;;;6.72;43.22
47742;BME280;33504;52.066;6.096;2023-02-15T08:33:03;102584.82;;;6.52;43.37
47742;BME280;33504;52.066;6.096;2023-02-15T08:35:30;102581.40;;;6.92;43.16
47742;BME280;33504;52.066;6.096;2023-02-15T08:37:58;102582.58;;;7.24;42.88
47742;BME280;33504;52.066;6.096;2023-02-15T08:40:25;102575.91;;;7.28;42.10
47742;BME280;33504;52.066;6.096;2023-02-15T08:42:52;102568.35;;;7.41;41.62
47742;BME280;33504;52.066;6.096;2023-02-15T08:45:19;102567.44;;;7.27;42.17
47742;BME280;33504;52.066;6.096;2023-02-15T08:47:46;102562.20;;;7.60;41.43
47742;BME280;33504;52.066;6.096;2023-02-15T08:50:14;102555.59;;;7.53;41.48
47742;BME280;33504;52.066;6.096;2023-02-15T08:52:41;102551.81;;;7.54;42.28
47742;BME280;33504;52.066;6.096;2023-02-15T08:55:09;102554.36;;;8.36;41.32
47742;BME280;33504;52.066;6.096;2023-02-15T08:57:36;102552.24;;;8.10;40.27
47742;BME280;33504;52.066;6.096;2023-02-15T09:00:05;102550.42;;;8.37;40.55
47742;BME280;33504;52.066;6.096;2023-02-15T09:02:33;102549.79;;;8.18;40.11
47742;BME280;33504;52.066;6.096;2023-02-15T09:05:01;102548.78;;;7.89;40.58
47742;BME280;33504;52.066;6.096;2023-02-15T09:07:28;102549.16;;;7.43;41.54
47742;BME280;33504;52.066;6.096;2023-02-15T09:09:55;102549.19;;;7.81;41.22
47742;BME280;33504;52.066;6.096;2023-02-15T09:12:22;102552.07;;;8.56;39.86
47742;BME280;33504;52.066;6.096;2023-02-15T09:14:49;102552.81;;;8.18;40.76
47742;BME280;33504;52.066;6.096;2023-02-15T09:17:16;102552.61;;;8.57;40.36
47742;BME280;33504;52.066;6.096;2023-02-15T09:19:44;102555.52;;;8.35;40.13
47742;BME280;33504;52.066;6.096;2023-02-15T09:22:11;102559.64;;;9.20;39.24
47742;BME280;33504;52.066;6.096;2023-02-15T09:24:38;102555.39;;;9.35;38.94
47742;BME280;33504;52.066;6.096;2023-02-15T09:27:05;102553.47;;;9.29;38.66
47742;BME280;33504;52.066;6.096;2023-02-15T09:29:33;102549.43;;;9.37;38.41
47742;BME280;33504;52.066;6.096;2023-02-15T09:32:00;102549.65;;;9.61;38.56
47742;BME280;33504;52.066;6.096;2023-02-15T09:34:28;102547.12;;;9.19;39.55
47742;BME280;33504;52.066;6.096;2023-02-15T09:36:55;102545.93;;;8.64;39.62
47742;BME280;33504;52.066;6.096;2023-02-15T09:39:23;102550.00;;;9.94;37.77
47742;BME280;33504;52.066;6.096;2023-02-15T09:42:11;102553.17;;;9.49;38.49
47742;BME280;33504;52.066;6.096;2023-02-15T09:44:54;102546.25;;;10.34;37.88
47742;BME280;33504;52.066;6.096;2023-02-15T09:47:38;102544.84;;;10.17;37.51
47742;BME280;33504;52.066;6.096;2023-02-15T09:50:12;102540.31;;;9.92;37.63
47742;BME280;33504;52.066;6.096;2023-02-15T09:52:57;102541.93;;;10.10;37.51
47742;BME280;33504;52.066;6.096;2023-02-15T09:55:38;102543.04;;;9.85;37.81
47742;BME280;33504;52.066;6.096;2023-02-15T09:58:15;102546.17;;;9.17;38.79
47742;BME280;33504;52.066;6.096;2023-02-15T10:00:50;102545.47;;;9.67;38.39
47742;BME280;33504;52.066;6.096;2023-02-15T10:03:41;102543.60;;;10.15;37.89
47742;BME280;33504;52.066;6.096;2023-02-15T10:06:21;102545.42;;;10.20;37.58
47742;BME280;33504;52.066;6.096;2023-02-15T10:09:14;102546.72;;;10.63;37.13
47742;BME280;33504;52.066;6.096;2023-02-15T10:12:02;102542.50;;;10.83;36.80
47742;BME280;33504;52.066;6.096;2023-02-15T10:15:50;102542.39;;;11.89;36.28
47742;BME280;33504;52.066;6.096;2023-02-15T10:18:32;102540.75;;;11.10;36.07
47742;BME280;33504;52.066;6.096;2023-02-15T10:21:10;102536.68;;;11.69;35.71
47742;BME280;33504;52.066;6.096;2023-02-15T10:23:53;102534.29;;;11.91;35.72
47742;BME280;33504;52.066;6.096;2023-02-15T10:26:31;102536.84;;;12.39;35.09
47742;BME280;33504;52.066;6.096;2023-02-15T10:29:04;102534.02;;;12.12;34.53
47742;BME280;33504;52.066;6.096;2023-02-15T10:31:47;102534.54;;;12.20;34.41
47742;BME280;33504;52.066;6.096;2023-02-15T10:34:17;102531.80;;;12.89;34.17
47742;BME280;33504;52.066;6.096;2023-02-15T10:38:00;102532.40;;;13.75;33.88
47742;BME280;33504;52.066;6.096;2023-02-15T10:40:40;102527.51;;;13.41;33.63
47742;BME280;33504;52.066;6.096;2023-02-15T10:43:23;102526.79;;;13.86;32.86
47742;BME280;33504;52.066;6.096;2023-02-15T10:46:03;102531.88;;;13.89;32.71
47742;BME280;33504;52.066;6.096;2023-02-15T10:48:46;102530.10;;;14.46;31.30
47742;BME280;33504;52.066;6.096;2023-02-15T10:51:28;102528.92;;;14.58;31.07
47742;BME280;33504;52.066;6.096;2023-02-15T10:54:08;102526.23;;;14.29;31.42
47742;BME280;33504;52.066;6.096;2023-02-15T10:56:45;102527.74;;;14.16;31.50
47742;BME280;33504;52.066;6.096;2023-02-15T10:59:28;102527.81;;;14.71;31.21
47742;BME280;33504;52.066;6.096;2023-02-15T11:02:03;102520.71;;;14.94;30.60
47742;BME280;33504;52.066;6.096;2023-02-15T11:04:45;102520.99;;;15.43;30.34
47742;BME280;33504;52.066;6.096;2023-02-15T11:07:19;102518.73;;;15.69;29.51
47742;BME280;33504;52.066;6.096;2023-02-15T11:09:50;102517.39;;;15.31;29.92
47742;BME280;33504;52.066;6.096;2023-02-15T11:12:22;102518.32;;;15.14;29.74
47742;BME280;33504;52.066;6.096;2023-02-15T11:14:53;102513.06;;;15.76;29.71
47742;BME280;33504;52.066;6.096;2023-02-15T11:17:25;102512.53;;;16.07;29.04
47742;BME280;33504;52.066;6.096;2023-02-15T11:19:58;102511.14;;;15.59;28.55
47742;BME280;33504;52.066;6.096;2023-02-15T11:22:30;102500.84;;;16.53;28.14
47742;BME280;33504;52.066;6.096;2023-02-15T11:25:00;102508.94;;;16.70;27.80
47742;BME280;33504;52.066;6.096;2023-02-15T11:27:31;102504.18;;;17.70;27.19
47742;BME280;33504;52.066;6.096;2023-02-15T11:30:02;102498.90;;;16.90;26.91
47742;BME280;33504;52.066;6.096;2023-02-15T11:32:32;102498.25;;;16.88;27.32
47742;BME280;33504;52.066;6.096;2023-02-15T11:35:02;102498.68;;;17.30;27.06
47742;BME280;33504;52.066;6.096;2023-02-15T11:37:35;102496.28;;;17.33;26.80
47742;BME280;33504;52.066;6.096;2023-02-15T11:40:16;102492.56;;;17.40;26.75
47742;BME280;33504;52.066;6.096;2023-02-15T11:42:45;102492.73;;;16.23;27.88
47742;BME280;33504;52.066;6.096;2023-02-15T11:45:21;102488.37;;;16.32;28.14
47742;BME280;33504;52.066;6.096;2023-02-15T11:47:53;102484.42;;;16.97;27.84
47742;BME280;33504;52.066;6.096;2023-02-15T11:50:22;102484.23;;;17.17;27.19
47742;BME280;33504;52.066;6.096;2023-02-15T11:52:52;102480.42;;;17.00;27.51
47742;BME280;33504;52.066;6.096;2023-02-15T11:55:23;102476.29;;;16.36;28.49
47742;BME280;33504;52.066;6.096;2023-02-15T11:57:55;102470.81;;;15.95;28.27
47742;BME280;33504;52.066;6.096;2023-02-15T12:00:32;102464.98;;;15.81;29.01
47742;BME280;33504;52.066;6.096;2023-02-15T12:03:05;102458.89;;;15.85;28.84
47742;BME280;33504;52.066;6.096;2023-02-15T12:05:36;102452.75;;;16.43;28.29
47742;BME280;33504;52.066;6.096;2023-02-15T12:08:15;102447.98;;;15.89;28.48
47742;BME280;33504;52.066;6.096;2023-02-15T12:10:50;102444.18;;;15.58;29.08
47742;BME280;33504;52.066;6.096;2023-02-15T12:13:20;102442.13;;;16.28;28.75
47742;BME280;33504;52.066;6.096;2023-02-15T12:15:50;102433.39;;;15.76;28.90
47742;BME280;33504;52.066;6.096;2023-02-15T12:18:24;102438.76;;;15.60;28.95
47742;BME280;33504;52.066;6.096;2023-02-15T12:20:59;102431.62;;;15.68;29.66
47742;BME280;33504;52.066;6.096;2023-02-15T12:23:28;102428.06;;;15.81;29.06
47742;BME280;33504;52.066;6.096;2023-02-15T12:25:56;102421.75;;;15.57;29.21
47742;BME280;33504;52.066;6.096;2023-02-15T12:28:30;102417.01;;;15.47;29.21
47742;BME280;33504;52.066;6.096;2023-02-15T12:30:59;102415.06;;;15.79;29.04
47742;BME280;33504;52.066;6.096;2023-02-15T12:33:29;102409.09;;;15.70;28.93
47742;BME280;33504;52.066;6.096;2023-02-15T12:35:59;102410.58;;;15.05;29.91
47742;BME280;33504;52.066;6.096;2023-02-15T12:38:28;102412.31;;;14.98;30.00
47742;BME280;33504;52.066;6.096;2023-02-15T12:40:58;102411.95;;;15.74;29.65
47742;BME280;33504;52.066;6.096;2023-02-15T12:43:27;102407.56;;;15.73;29.26
47742;BME280;33504;52.066;6.096;2023-02-15T12:46:14;102401.45;;;15.54;29.65
47742;BME280;33504;52.066;6.096;2023-02-15T12:48:45;102399.70;;;15.52;29.78
47742;BME280;33504;52.066;6.096;2023-02-15T12:51:15;102398.44;;;15.60;29.57
47742;BME280;33504;52.066;6.096;2023-02-15T12:53:42;102396.12;;;16.02;29.61
47742;BME280;33504;52.066;6.096;2023-02-15T12:56:10;102400.15;;;15.89;29.41
47742;BME280;33504;52.066;6.096;2023-02-15T12:58:38;102402.02;;;14.87;30.13
47742;BME280;33504;52.066;6.096;2023-02-15T13:01:12;102402.44;;;15.77;30.15
47742;BME280;33504;52.066;6.096;2023-02-15T13:03:54;102394.62;;;16.27;28.76
47742;BME280;33504;52.066;6.096;2023-02-15T13:06:22;102399.62;;;15.88;29.63
47742;BME280;33504;52.066;6.096;2023-02-15T13:08:51;102401.47;;;16.13;29.13
47742;BME280;33504;52.066;6.096;2023-02-15T13:11:22;102400.73;;;16.72;28.67
47742;BME280;33504;52.066;6.096;2023-02-15T13:13:54;102392.35;;;17.65;27.85
47742;BME280;33504;52.066;6.096;2023-02-15T13:16:29;102386.03;;;18.01;27.00
47742;BME280;33504;52.066;6.096;2023-02-15T13:18:57;102377.26;;;18.21;26.97